Time;durP1;ratioP1;P1;durP2;ratioP2;P2;SDS_P1;SDS_P2;PMS_P1;PMS_P2;Temp;Humidity;BMP_temperature;BMP_pressure;BME280_temperature;BME280_humidity;BME280_pressure;Samples;Min_cycle;Max_cycle;Signal;HPM_P1;HPM_P2
2022/01/17 00:01:05;;;;;;;25.13;4.20;;;;;;;;;;4926433;29;20051;-79
2022/01/17 00:03:31;;;;;;;29.25;4.55;;;;;;;;;;4920633;29;20043;-79
2022/01/17 00:05:57;;;;;;;19.25;3.75;;;;;;;;;;4915562;29;20494;-79
2022/01/17 00:08:24;;;;;;;21.42;4.53;;;;;;;;;;4895210;29;20062;-80
2022/01/17 00:10:50;;;;;;;20.10;4.85;;;;;;;;;;4911878;29;20063;-79
2022/01/17 00:13:24;;;;;;;32.40;4.90;;;;;;;;;;4934712;29;20063;-79
2022/01/17 00:15:56;;;;;;;29.45;6.20;;;;;;;;;;4911632;29;20058;-79
2022/01/17 00:18:39;;;;;;;26.33;4.57;;;;;;;;;;4907572;29;20057;-79
2022/01/17 00:21:06;;;;;;;20.30;4.15;;;;;;;;;;4919409;29;20126;-79
2022/01/17 00:23:33;;;;;;;27.25;4.45;;;;;;;;;;4913341;29;20082;-79
2022/01/17 00:25:59;;;;;;;23.23;4.75;;;;;;;;;;4917515;29;20158;-81
2022/01/17 00:28:25;;;;;;;25.23;3.25;;;;;;;;;;4931857;29;20488;-79
2022/01/17 00:30:51;;;;;;;27.35;5.07;;;;;;;;;;4912749;29;20055;-80
2022/01/17 00:33:17;;;;;;;22.65;4.35;;;;;;;;;;4912894;29;20453;-79
2022/01/17 00:35:43;;;;;;;39.15;8.52;;;;;;;;;;4906149;29;20044;-80
2022/01/17 00:38:12;;;;;;;26.38;3.80;;;;;;;;;;4925013;29;20117;-81
2022/01/17 00:40:38;;;;;;;25.27;4.55;;;;;;;;;;4913381;28;20059;-80
2022/01/17 00:43:04;;;;;;;28.80;3.53;;;;;;;;;;4920309;29;20043;-80
2022/01/17 00:45:31;;;;;;;23.33;3.00;;;;;;;;;;4896441;29;20047;-79
2022/01/17 00:48:00;;;;;;;23.25;4.55;;;;;;;;;;4898857;29;20047;-79
2022/01/17 00:50:27;;;;;;;23.30;3.17;;;;;;;;;;4916797;29;20502;-80
2022/01/17 00:52:54;;;;;;;18.52;2.75;;;;;;;;;;4928553;29;20399;-83
2022/01/17 00:55:20;;;;;;;25.42;3.20;;;;;;;;;;4919530;29;20190;-81
2022/01/17 00:57:46;;;;;;;20.38;3.28;;;;;;;;;;4932953;29;20066;-80
2022/01/17 01:00:13;;;;;;;20.58;2.95;;;;;;;;;;4919048;28;21744;-79
2022/01/17 01:02:40;;;;;;;26.70;3.13;;;;;;;;;;4917382;29;20126;-80
2022/01/17 01:05:06;;;;;;;22.60;3.30;;;;;;;;;;4936298;29;20039;-80
2022/01/17 01:07:32;;;;;;;18.90;4.13;;;;;;;;;;4919848;29;20043;-84
2022/01/17 01:10:31;;;;;;;22.55;3.33;;;;;;;;;;4936043;29;20043;-80
2022/01/17 01:12:51;;;;;;;15.32;2.40;;;;;;;;;;4926073;29;20050;-79
2022/01/17 01:15:33;;;;;;;20.33;2.75;;;;;;;;;;4923310;29;20047;-79
2022/01/17 01:18:01;;;;;;;17.45;2.63;;;;;;;;;;4930367;29;20090;-79
2022/01/17 01:28:27;;;;;;;21.85;2.83;;;;;;;;;;4927203;29;20078;-79
2022/01/17 01:30:56;;;;;;;22.30;2.50;;;;;;;;;;4928922;29;20150;-79
2022/01/17 01:33:35;;;;;;;15.02;2.35;;;;;;;;;;4905882;29;20467;-78
2022/01/17 01:36:07;;;;;;;22.77;2.90;;;;;;;;;;4932027;29;20494;-77
2022/01/17 01:38:35;;;;;;;18.42;3.15;;;;;;;;;;4926109;29;20396;-77
2022/01/17 01:41:01;;;;;;;23.05;2.47;;;;;;;;;;4905807;29;20106;-77
2022/01/17 01:43:27;;;;;;;21.17;3.67;;;;;;;;;;4928634;29;20043;-77
2022/01/17 01:45:58;;;;;;;15.20;2.90;;;;;;;;;;4926811;29;20039;-77
2022/01/17 01:48:24;;;;;;;19.85;2.92;;;;;;;;;;4912208;29;20395;-78
2022/01/17 01:50:50;;;;;;;30.55;3.30;;;;;;;;;;4925921;29;20053;-78
2022/01/17 01:53:16;;;;;;;21.08;3.38;;;;;;;;;;4911125;29;20051;-78
2022/01/17 01:55:43;;;;;;;24.25;4.45;;;;;;;;;;4914379;29;20051;-80
2022/01/17 01:58:09;;;;;;;27.27;4.13;;;;;;;;;;4912835;29;20047;-78
2022/01/17 02:00:36;;;;;;;23.50;3.17;;;;;;;;;;4919221;29;20084;-78
2022/01/17 02:03:02;;;;;;;21.60;3.63;;;;;;;;;;4922712;29;20097;-79
2022/01/17 02:05:28;;;;;;;27.63;3.75;;;;;;;;;;4921461;29;20071;-78
2022/01/17 02:07:54;;;;;;;26.40;3.70;;;;;;;;;;4932870;29;20435;-79
2022/01/17 02:10:20;;;;;;;23.02;3.28;;;;;;;;;;4900636;29;20047;-79
2022/01/17 02:12:47;;;;;;;18.45;2.70;;;;;;;;;;4912797;29;20055;-78
2022/01/17 02:15:14;;;;;;;22.58;3.13;;;;;;;;;;4925177;29;20055;-78
2022/01/17 02:17:45;;;;;;;21.10;2.80;;;;;;;;;;4911424;29;20058;-77
2022/01/17 02:20:21;;;;;;;27.77;3.60;;;;;;;;;;4893545;29;20051;-78
2022/01/17 02:22:48;;;;;;;22.25;2.80;;;;;;;;;;4928949;29;20047;-77
2022/01/17 02:25:14;;;;;;;18.58;3.60;;;;;;;;;;4889703;29;20482;-77
2022/01/17 02:27:40;;;;;;;23.73;3.80;;;;;;;;;;4926502;29;20043;-80
2022/01/17 02:30:06;;;;;;;21.35;2.85;;;;;;;;;;4914194;29;20055;-77
2022/01/17 02:32:33;;;;;;;21.40;3.00;;;;;;;;;;4926066;29;20055;-77
2022/01/17 02:35:19;;;;;;;21.02;2.53;;;;;;;;;;4922950;29;20055;-77
2022/01/17 02:37:45;;;;;;;23.63;3.50;;;;;;;;;;4927311;29;20049;-78
2022/01/17 02:40:12;;;;;;;23.08;2.83;;;;;;;;;;4908542;29;20091;-78
2022/01/17 02:42:39;;;;;;;25.50;3.38;;;;;;;;;;4928674;29;20597;-77
2022/01/17 02:45:11;;;;;;;29.20;3.60;;;;;;;;;;4924042;29;20166;-77
2022/01/17 02:47:38;;;;;;;24.42;2.47;;;;;;;;;;4923518;29;20407;-78
2022/01/17 02:50:04;;;;;;;22.95;3.33;;;;;;;;;;4910979;29;20047;-81
2022/01/17 02:52:30;;;;;;;22.80;3.58;;;;;;;;;;4923007;29;20059;-78
2022/01/17 02:54:56;;;;;;;31.38;3.30;;;;;;;;;;4930216;29;20043;-78
2022/01/17 02:57:24;;;;;;;18.55;3.58;;;;;;;;;;4928281;29;20052;-79
2022/01/17 02:59:52;;;;;;;25.48;2.78;;;;;;;;;;4906723;29;20051;-78
2022/01/17 03:02:18;;;;;;;26.02;4.13;;;;;;;;;;4908962;29;20051;-78
2022/01/17 03:04:44;;;;;;;30.02;3.45;;;;;;;;;;4926446;29;20046;-78
2022/01/17 03:07:10;;;;;;;24.02;3.45;;;;;;;;;;4908869;29;20127;-79
2022/01/17 03:09:45;;;;;;;22.45;3.58;;;;;;;;;;4926648;29;20043;-78
2022/01/17 03:12:11;;;;;;;20.08;3.10;;;;;;;;;;4922074;29;20162;-78
2022/01/17 03:14:37;;;;;;;27.08;3.25;;;;;;;;;;4891549;29;20495;-79
2022/01/17 03:17:03;;;;;;;20.23;3.08;;;;;;;;;;4927726;29;20040;-78
2022/01/17 03:19:29;;;;;;;28.65;4.35;;;;;;;;;;4933413;29;20062;-77
2022/01/17 03:21:55;;;;;;;24.75;2.90;;;;;;;;;;4919217;29;20046;-77
2022/01/17 03:24:21;;;;;;;26.70;4.18;;;;;;;;;;4925923;29;20079;-78
2022/01/17 03:26:47;;;;;;;29.23;3.50;;;;;;;;;;4915613;29;20043;-76
2022/01/17 03:29:13;;;;;;;21.02;3.65;;;;;;;;;;4927298;29;20054;-79
2022/01/17 03:31:39;;;;;;;18.52;2.92;;;;;;;;;;4948230;29;20049;-78
2022/01/17 03:34:06;;;;;;;28.33;3.53;;;;;;;;;;4925098;29;20044;-78
2022/01/17 03:36:32;;;;;;;22.77;2.58;;;;;;;;;;4944392;29;20047;-86
2022/01/17 03:38:58;;;;;;;22.60;3.03;;;;;;;;;;4930575;29;20075;-77
2022/01/17 03:41:25;;;;;;;22.77;2.70;;;;;;;;;;4913479;29;20055;-80
2022/01/17 03:43:51;;;;;;;20.27;2.70;;;;;;;;;;4930456;29;20048;-78
2022/01/17 03:46:17;;;;;;;25.98;3.13;;;;;;;;;;4931827;29;20054;-78
2022/01/17 03:48:43;;;;;;;19.13;2.92;;;;;;;;;;4915131;29;20044;-78
2022/01/17 03:51:09;;;;;;;25.75;3.20;;;;;;;;;;4913792;29;20514;-80
2022/01/17 03:53:35;;;;;;;19.35;2.75;;;;;;;;;;4914012;29;20146;-79
2022/01/17 03:56:01;;;;;;;26.13;2.92;;;;;;;;;;4934359;29;20066;-79
2022/01/17 03:58:27;;;;;;;22.73;2.90;;;;;;;;;;4921378;29;20055;-78
2022/01/17 04:00:55;;;;;;;27.92;3.20;;;;;;;;;;4914023;29;20043;-78
2022/01/17 04:03:21;;;;;;;20.27;2.78;;;;;;;;;;4909951;29;20052;-77
2022/01/17 04:05:47;;;;;;;21.92;2.60;;;;;;;;;;4902098;29;20483;-78
2022/01/17 04:08:13;;;;;;;22.52;2.90;;;;;;;;;;4912606;29;20229;-78
2022/01/17 04:10:40;;;;;;;20.27;2.58;;;;;;;;;;4932043;29;20051;-79
2022/01/17 04:13:06;;;;;;;23.83;3.83;;;;;;;;;;4931312;29;20153;-80
2022/01/17 04:15:35;;;;;;;26.10;3.33;;;;;;;;;;4917101;29;20051;-77
2022/01/17 04:18:01;;;;;;;19.35;3.03;;;;;;;;;;4909708;29;20365;-80
2022/01/17 04:20:28;;;;;;;23.92;2.55;;;;;;;;;;4922173;29;20827;-76
2022/01/17 04:22:56;;;;;;;21.13;3.05;;;;;;;;;;4929398;29;20051;-78
2022/01/17 04:25:24;;;;;;;17.50;3.08;;;;;;;;;;4936325;29;20051;-78
2022/01/17 04:27:50;;;;;;;22.10;2.75;;;;;;;;;;4922511;29;20208;-77
2022/01/17 04:30:16;;;;;;;20.25;3.13;;;;;;;;;;4922141;29;20499;-78
2022/01/17 04:32:44;;;;;;;22.77;4.05;;;;;;;;;;4911405;29;20058;-77
2022/01/17 04:35:10;;;;;;;19.98;2.50;;;;;;;;;;4912032;29;20047;-78
2022/01/17 04:37:36;;;;;;;18.70;2.83;;;;;;;;;;4914139;29;20050;-78
2022/01/17 04:40:03;;;;;;;21.50;2.92;;;;;;;;;;4928442;29;20047;-78
2022/01/17 04:42:30;;;;;;;20.65;3.42;;;;;;;;;;4926150;29;20174;-79
2022/01/17 04:45:08;;;;;;;27.23;3.65;;;;;;;;;;4908771;29;20059;-78
2022/01/17 04:47:36;;;;;;;21.83;2.72;;;;;;;;;;4917185;29;20625;-78
2022/01/17 04:50:03;;;;;;;26.95;3.10;;;;;;;;;;4934367;29;20058;-79
2022/01/17 04:52:29;;;;;;;24.70;4.47;;;;;;;;;;4912430;29;20066;-78
2022/01/17 04:55:00;;;;;;;18.48;3.38;;;;;;;;;;4918348;29;20047;-79
2022/01/17 04:57:26;;;;;;;24.60;3.95;;;;;;;;;;4912324;29;20445;-79
2022/01/17 04:59:52;;;;;;;26.33;3.80;;;;;;;;;;4930852;29;20094;-79
2022/01/17 05:02:18;;;;;;;21.98;3.28;;;;;;;;;;4893689;29;20039;-78
2022/01/17 05:04:45;;;;;;;21.95;3.38;;;;;;;;;;4908963;29;20365;-77
2022/01/17 05:07:11;;;;;;;21.10;3.30;;;;;;;;;;4906777;29;20472;-79
2022/01/17 05:09:39;;;;;;;22.42;3.20;;;;;;;;;;4914854;29;20442;-79
2022/01/17 05:12:06;;;;;;;26.50;3.25;;;;;;;;;;4900202;29;20059;-78
2022/01/17 05:14:32;;;;;;;32.08;5.38;;;;;;;;;;4906229;29;20147;-78
2022/01/17 05:17:05;;;;;;;23.23;3.03;;;;;;;;;;4912491;29;20047;-78
2022/01/17 05:19:49;;;;;;;16.37;3.07;;;;;;;;;;4918290;29;20059;-79
2022/01/17 05:22:19;;;;;;;34.00;5.75;;;;;;;;;;4916463;29;20467;-78
2022/01/17 05:24:46;;;;;;;18.38;3.58;;;;;;;;;;4920689;29;20103;-77
2022/01/17 05:27:13;;;;;;;15.85;2.75;;;;;;;;;;4929171;29;20031;-78
2022/01/17 05:29:39;;;;;;;21.75;4.30;;;;;;;;;;4914475;29;20047;-78
2022/01/17 05:32:05;;;;;;;25.75;4.30;;;;;;;;;;4914253;29;20045;-83
2022/01/17 05:34:34;;;;;;;23.15;4.05;;;;;;;;;;4932196;29;20194;-77
2022/01/17 05:37:00;;;;;;;27.60;4.40;;;;;;;;;;4923749;29;20479;-78
2022/01/17 05:39:26;;;;;;;25.52;4.18;;;;;;;;;;4923392;29;20455;-77
2022/01/17 05:41:53;;;;;;;26.85;4.60;;;;;;;;;;4928433;29;20491;-77
2022/01/17 05:44:19;;;;;;;28.05;5.13;;;;;;;;;;4924344;29;20059;-80
2022/01/17 05:46:45;;;;;;;25.98;4.75;;;;;;;;;;4922227;29;20084;-78
2022/01/17 05:49:11;;;;;;;19.67;4.35;;;;;;;;;;4904966;29;20043;-78
2022/01/17 05:51:37;;;;;;;25.13;4.40;;;;;;;;;;4925469;29;20501;-78
2022/01/17 05:54:03;;;;;;;30.15;5.55;;;;;;;;;;4922626;29;20130;-78
2022/01/17 05:56:29;;;;;;;27.85;3.78;;;;;;;;;;4905955;29;20051;-78
2022/01/17 05:58:55;;;;;;;27.70;5.45;;;;;;;;;;4930201;29;20110;-79
2022/01/17 06:01:21;;;;;;;29.48;5.13;;;;;;;;;;4908339;29;20065;-79
2022/01/17 06:03:47;;;;;;;32.95;6.28;;;;;;;;;;4907647;29;20174;-79
2022/01/17 06:06:13;;;;;;;21.10;4.95;;;;;;;;;;4926228;29;20082;-79
2022/01/17 06:08:40;;;;;;;24.45;3.97;;;;;;;;;;4929876;29;20035;-79
2022/01/17 06:11:07;;;;;;;23.80;4.63;;;;;;;;;;4909609;29;20057;-79
2022/01/17 06:13:33;;;;;;;25.23;4.55;;;;;;;;;;4909040;29;20047;-78
2022/01/17 06:15:59;;;;;;;25.67;4.20;;;;;;;;;;4887940;29;20134;-78
2022/01/17 06:18:25;;;;;;;31.30;5.07;;;;;;;;;;4919696;29;20539;-76
2022/01/17 06:20:51;;;;;;;25.77;4.95;;;;;;;;;;4936747;29;20071;-81
2022/01/17 06:23:17;;;;;;;31.17;4.43;;;;;;;;;;4909830;29;20097;-73
2022/01/17 06:25:43;;;;;;;30.45;5.15;;;;;;;;;;4927464;29;20031;-78
2022/01/17 06:28:09;;;;;;;32.72;4.97;;;;;;;;;;4920823;29;20134;-75
2022/01/17 06:30:35;;;;;;;33.17;5.10;;;;;;;;;;4927637;29;20053;-75
2022/01/17 06:33:04;;;;;;;36.00;4.95;;;;;;;;;;4940942;29;20055;-76
2022/01/17 06:35:31;;;;;;;32.90;6.50;;;;;;;;;;4907348;29;20036;-77
2022/01/17 06:37:57;;;;;;;34.40;5.57;;;;;;;;;;4906393;29;20225;-76
2022/01/17 06:40:23;;;;;;;42.22;5.85;;;;;;;;;;4923131;28;20031;-76
2022/01/17 06:42:50;;;;;;;27.45;5.72;;;;;;;;;;4921533;29;20152;-76
2022/01/17 06:45:18;;;;;;;38.65;6.53;;;;;;;;;;4921537;29;20051;-77
2022/01/17 06:47:44;;;;;;;27.92;5.80;;;;;;;;;;4923072;29;20056;-77
2022/01/17 06:50:11;;;;;;;33.85;5.72;;;;;;;;;;4908734;29;20047;-77
2022/01/17 06:52:38;;;;;;;40.88;5.13;;;;;;;;;;4904198;29;20055;-79
2022/01/17 06:55:05;;;;;;;38.72;5.03;;;;;;;;;;4930245;29;20062;-79
2022/01/17 06:57:31;;;;;;;37.50;5.88;;;;;;;;;;4907784;29;20055;-78
2022/01/17 06:59:57;;;;;;;30.35;5.60;;;;;;;;;;4909502;29;20051;-78
2022/01/17 07:02:24;;;;;;;30.10;5.63;;;;;;;;;;4895532;29;20117;-78
2022/01/17 07:04:50;;;;;;;37.03;5.38;;;;;;;;;;4922700;29;20213;-78
2022/01/17 07:07:17;;;;;;;39.60;5.53;;;;;;;;;;4920914;29;20048;-81
2022/01/17 07:09:43;;;;;;;37.63;5.25;;;;;;;;;;4915788;29;20094;-81
2022/01/17 07:12:09;;;;;;;43.95;4.85;;;;;;;;;;4925047;29;20063;-79
2022/01/17 07:14:41;;;;;;;38.35;5.05;;;;;;;;;;4911897;29;20051;-80
2022/01/17 07:17:08;;;;;;;36.75;5.18;;;;;;;;;;4907063;29;20087;-79
2022/01/17 07:19:34;;;;;;;43.65;5.68;;;;;;;;;;4918409;29;20417;-80
2022/01/17 07:22:00;;;;;;;41.45;5.05;;;;;;;;;;4922338;29;20039;-78
2022/01/17 07:24:26;;;;;;;44.75;6.05;;;;;;;;;;4903086;29;20077;-80
2022/01/17 07:26:52;;;;;;;39.83;6.47;;;;;;;;;;4917531;29;20052;-81
2022/01/17 07:29:18;;;;;;;33.70;4.85;;;;;;;;;;4917699;29;20043;-84
2022/01/17 07:31:44;;;;;;;35.78;7.07;;;;;;;;;;4906412;29;20035;-77
2022/01/17 07:34:11;;;;;;;50.70;6.40;;;;;;;;;;4908851;29;20044;-80
2022/01/17 07:36:37;;;;;;;40.17;5.30;;;;;;;;;;4926206;29;20057;-80
2022/01/17 07:39:03;;;;;;;49.60;7.43;;;;;;;;;;4915155;29;20074;-80
2022/01/17 07:41:29;;;;;;;47.20;5.45;;;;;;;;;;4910456;29;20047;-79
2022/01/17 07:43:56;;;;;;;36.85;6.80;;;;;;;;;;4926903;29;20040;-79
2022/01/17 07:49:03;;;;;;;37.92;5.15;;;;;;;;;;4918503;29;20510;-80
2022/01/17 07:51:29;;;;;;;31.73;4.68;;;;;;;;;;4908357;29;20050;-81
2022/01/17 07:53:56;;;;;;;41.28;6.47;;;;;;;;;;4915815;29;20044;-80
2022/01/17 07:56:24;;;;;;;37.30;5.55;;;;;;;;;;4925226;29;20102;-81
2022/01/17 07:58:50;;;;;;;34.15;4.50;;;;;;;;;;4923703;29;20055;-81
2022/01/17 08:01:16;;;;;;;38.67;6.65;;;;;;;;;;4925493;29;20047;-80
2022/01/17 08:03:43;;;;;;;35.75;5.75;;;;;;;;;;4928311;29;20048;-82
2022/01/17 08:06:09;;;;;;;34.45;4.72;;;;;;;;;;4905468;29;20052;-80
2022/01/17 08:08:35;;;;;;;42.47;5.72;;;;;;;;;;4910973;29;20047;-80
2022/01/17 08:11:01;;;;;;;47.00;6.25;;;;;;;;;;4920213;29;20122;-80
2022/01/17 08:13:27;;;;;;;43.58;5.22;;;;;;;;;;4918414;29;20051;-80
2022/01/17 08:15:55;;;;;;;47.05;6.40;;;;;;;;;;4911091;29;20407;-81
2022/01/17 08:18:21;;;;;;;39.38;5.07;;;;;;;;;;4896645;29;20054;-78
2022/01/17 08:20:47;;;;;;;42.05;6.85;;;;;;;;;;4910995;29;20050;-79
2022/01/17 08:23:13;;;;;;;42.47;7.10;;;;;;;;;;4918743;29;20432;-77
2022/01/17 08:25:40;;;;;;;53.80;6.40;;;;;;;;;;4905781;29;20426;-79
2022/01/17 08:28:06;;;;;;;38.17;6.65;;;;;;;;;;4924235;29;20119;-79
2022/01/17 08:30:32;;;;;;;45.83;5.80;;;;;;;;;;4910745;29;20135;-78
2022/01/17 08:32:58;;;;;;;34.78;5.97;;;;;;;;;;4919949;29;20151;-78
2022/01/17 08:35:25;;;;;;;44.90;7.15;;;;;;;;;;4911154;29;20623;-76
2022/01/17 08:37:51;;;;;;;39.22;6.55;;;;;;;;;;4914181;29;20338;-79
2022/01/17 08:40:19;;;;;;;38.22;6.18;;;;;;;;;;4922465;29;20767;-81
2022/01/17 08:42:46;;;;;;;40.63;6.72;;;;;;;;;;4932171;29;20051;-80
2022/01/17 08:45:13;;;;;;;42.58;6.93;;;;;;;;;;4908492;29;20051;-80
2022/01/17 08:47:39;;;;;;;44.70;6.18;;;;;;;;;;4924952;29;20063;-83
2022/01/17 08:50:06;;;;;;;33.67;6.05;;;;;;;;;;4912349;29;20047;-80
2022/01/17 08:52:32;;;;;;;34.30;5.90;;;;;;;;;;4906461;29;20051;-79
2022/01/17 08:54:59;;;;;;;45.15;6.40;;;;;;;;;;4890905;29;20050;-81
2022/01/17 08:57:25;;;;;;;48.95;5.75;;;;;;;;;;4925415;29;20043;-80
2022/01/17 08:59:52;;;;;;;39.78;6.10;;;;;;;;;;4914108;29;20065;-78
2022/01/17 09:02:18;;;;;;;44.38;6.22;;;;;;;;;;4921419;29;20051;-81
2022/01/17 09:04:45;;;;;;;47.08;6.72;;;;;;;;;;4908792;29;20047;-78
2022/01/17 09:07:12;;;;;;;36.20;5.90;;;;;;;;;;4920585;29;20043;-79
2022/01/17 09:09:39;;;;;;;42.35;7.00;;;;;;;;;;4924750;29;20047;-79
2022/01/17 09:12:09;;;;;;;42.47;6.28;;;;;;;;;;4910223;29;20110;-81
2022/01/17 09:14:35;;;;;;;42.95;7.10;;;;;;;;;;4906248;29;20048;-80
2022/01/17 09:17:02;;;;;;;44.72;6.70;;;;;;;;;;4928985;29;20047;-78
2022/01/17 09:19:28;;;;;;;46.53;6.65;;;;;;;;;;4911373;29;20047;-76
2022/01/17 09:21:54;;;;;;;39.15;6.28;;;;;;;;;;4926974;29;20054;-75
2022/01/17 09:24:20;;;;;;;45.13;7.00;;;;;;;;;;4918504;29;20073;-76
2022/01/17 09:26:47;;;;;;;41.75;8.20;;;;;;;;;;4930002;29;20079;-75
2022/01/17 09:29:13;;;;;;;43.05;6.82;;;;;;;;;;4930404;29;20071;-76
2022/01/17 09:31:39;;;;;;;41.53;6.13;;;;;;;;;;4898654;29;20563;-77
2022/01/17 09:34:06;;;;;;;38.13;5.70;;;;;;;;;;4917005;29;20040;-76
2022/01/17 09:36:34;;;;;;;41.67;8.32;;;;;;;;;;4916127;29;20051;-78
2022/01/17 09:39:00;;;;;;;50.70;7.32;;;;;;;;;;4907542;29;20475;-76
2022/01/17 09:41:26;;;;;;;44.22;6.97;;;;;;;;;;4918910;29;20087;-76
2022/01/17 09:43:53;;;;;;;43.72;7.05;;;;;;;;;;4925694;29;20055;-75
2022/01/17 09:46:23;;;;;;;49.50;6.68;;;;;;;;;;4931280;29;20050;-75
2022/01/17 09:48:51;;;;;;;43.72;6.38;;;;;;;;;;4913776;29;20137;-77
2022/01/17 09:51:38;;;;;;;50.15;8.38;;;;;;;;;;4930664;29;20114;-77
2022/01/17 09:54:05;;;;;;;47.55;7.10;;;;;;;;;;4930300;29;20554;-76
2022/01/17 09:56:31;;;;;;;45.97;7.68;;;;;;;;;;4913621;29;20043;-77
2022/01/17 09:58:58;;;;;;;42.70;6.93;;;;;;;;;;4948360;29;20396;-75
2022/01/17 10:01:25;;;;;;;44.58;6.55;;;;;;;;;;4921868;29;20484;-75
2022/01/17 10:03:52;;;;;;;51.25;6.32;;;;;;;;;;4928736;29;20048;-76
2022/01/17 10:06:19;;;;;;;51.72;8.57;;;;;;;;;;4920365;29;20381;-76
2022/01/17 10:08:45;;;;;;;54.60;8.90;;;;;;;;;;4910412;29;20039;-76
2022/01/17 10:11:15;;;;;;;48.20;7.05;;;;;;;;;;4922992;29;20075;-76
2022/01/17 10:13:45;;;;;;;48.63;7.38;;;;;;;;;;4927953;29;20046;-74
2022/01/17 10:16:11;;;;;;;46.60;6.72;;;;;;;;;;4943200;29;20062;-74
2022/01/17 10:18:58;;;;;;;51.30;8.05;;;;;;;;;;4911025;29;20468;-75
2022/01/17 10:21:28;;;;;;;42.00;7.30;;;;;;;;;;4916219;29;20063;-75
2022/01/17 10:24:12;;;;;;;46.30;6.57;;;;;;;;;;4925946;29;20399;-76
2022/01/17 10:37:07;;;;;;;;;;;;;;;;;;4922108;29;19930;-75
2022/01/17 10:39:37;;;;;;;;;;;;;;;;;;4921382;29;19926;-75
2022/01/17 10:42:03;;;;;;;;;;;;;;;;;;4925375;29;20445;-78
2022/01/17 10:44:29;;;;;;;;;;;;;;;;;;4925634;28;19969;-79
2022/01/17 10:46:55;;;;;;;;;;;;;;;;;;4916108;29;20354;-81
2022/01/17 10:49:21;;;;;;;;;;;;;;;;;;4909627;29;19962;-83
2022/01/17 10:51:47;;;;;;;;;;;;;;;;;;4928980;29;19925;-81
2022/01/17 10:54:13;;;;;;;;;;;;;;;;;;4934999;29;19918;-82
2022/01/17 10:56:39;;;;;;;;;;;;;;;;;;4918038;29;19965;-80
2022/01/17 10:59:05;;;;;;;;;;;;;;;;;;4915694;29;20021;-79
2022/01/17 11:01:31;;;;;;;;;;;;;;;;;;4929924;29;19919;-75
2022/01/17 11:03:58;;;;;;;47.17;8.18;;;;;;;;;;4935571;29;19922;-77
2022/01/17 11:06:24;;;;;;;51.83;9.10;;;;;;;;;;4933196;29;20398;-79
2022/01/17 11:08:51;;;;;;;62.67;10.65;;;;;;;;;;4906766;29;20077;-81
2022/01/17 11:11:22;;;;;;;57.25;9.02;;;;;;;;;;4911340;29;20051;-81
2022/01/17 11:13:49;;;;;;;50.60;8.48;;;;;;;;;;4930569;29;20070;-79
2022/01/17 11:16:18;;;;;;;63.22;10.93;;;;;;;;;;4917455;29;20089;-77
2022/01/17 11:18:57;;;;;;;49.85;8.57;;;;;;;;;;4928786;29;20047;-85
2022/01/17 11:21:23;;;;;;;46.05;8.27;;;;;;;;;;4923566;29;20051;-76
2022/01/17 11:23:49;;;;;;;53.42;7.80;;;;;;;;;;4933068;29;20066;-78
2022/01/17 11:26:16;;;;;;;63.25;8.35;;;;;;;;;;4933055;29;20047;-78
2022/01/17 11:28:43;;;;;;;53.28;9.98;;;;;;;;;;4933137;29;20050;-79
2022/01/17 11:31:15;;;;;;;56.53;8.52;;;;;;;;;;4932536;29;20134;-78
2022/01/17 11:33:42;;;;;;;61.78;10.35;;;;;;;;;;4920482;29;20130;-78
2022/01/17 11:36:08;;;;;;;53.72;8.15;;;;;;;;;;4920581;29;20117;-76
2022/01/17 11:38:37;;;;;;;54.47;9.80;;;;;;;;;;4915926;29;20050;-78
2022/01/17 11:41:03;;;;;;;;;;;;;;;;;;4931343;29;20160;-77
2022/01/17 11:43:35;;;;;;;55.33;9.35;;;;;;;;;;4931504;29;20339;-77
2022/01/17 11:46:03;;;;;;;51.70;8.80;;;;;;;;;;4928948;29;20428;-77
2022/01/17 11:48:32;;;;;;;44.15;7.93;;;;;;;;;;4933792;29;20474;-78
2022/01/17 11:50:58;;;;;;;;;;;;;;;;;;4907629;29;20407;-80
2022/01/17 11:53:24;;;;;;;;;;;;;;;;;;4934284;29;20382;-76
2022/01/17 11:55:50;;;;;;;;;;;;;;;;;;4918437;29;19922;-76
2022/01/17 11:58:16;;;;;;;;;;;;;;;;;;4917034;29;19926;-78
2022/01/17 12:00:42;;;;;;;;;;;;;;;;;;4927821;29;20389;-77
2022/01/17 12:03:08;;;;;;;;;;;;;;;;;;4914646;29;20215;-77
2022/01/17 12:05:35;;;;;;;;;;;;;;;;;;4909636;29;19986;-76
2022/01/17 12:08:01;;;;;;;;;;;;;;;;;;4905895;29;19974;-77
2022/01/17 12:10:27;;;;;;;;;;;;;;;;;;4921524;29;19962;-81
2022/01/17 12:12:53;;;;;;;;;;;;;;;;;;4911692;29;19923;-79
2022/01/17 12:15:20;;;;;;;;;;;;;;;;;;4907053;29;19950;-79
2022/01/17 12:17:46;;;;;;;;;;;;;;;;;;4932256;29;19929;-78
2022/01/17 12:20:13;;;;;;;;;;;;;;;;;;4924464;29;20318;-74
2022/01/17 12:22:39;;;;;;;;;;;;;;;;;;4908106;29;19977;-76
2022/01/17 12:25:05;;;;;;;;;;;;;;;;;;4909325;29;19970;-80
2022/01/17 12:27:31;;;;;;;;;;;;;;;;;;4911380;29;19977;-77
2022/01/17 12:29:57;;;;;;;;;;;;;;;;;;4924133;29;19930;-76
2022/01/17 12:32:23;;;;;;;;;;;;;;;;;;4926616;29;20509;-76
2022/01/17 12:34:49;;;;;;;;;;;;;;;;;;4925266;29;19926;-77
2022/01/17 12:37:15;;;;;;;;;;;;;;;;;;4910388;29;19929;-76
2022/01/17 12:39:41;;;;;;;;;;;;;;;;;;4924567;29;20378;-77
2022/01/17 12:42:09;;;;;;;58.85;8.23;;;;;;;;;;4919605;29;20318;-75
2022/01/17 12:44:39;;;;;;;62.60;10.23;;;;;;;;;;4931582;28;20047;-76
2022/01/17 12:47:05;;;;;;;47.45;8.98;;;;;;;;;;4906493;29;20384;-75
2022/01/17 12:49:31;;;;;;;74.38;12.43;;;;;;;;;;4927026;29;20494;-77
2022/01/17 12:51:59;;;;;;;61.72;12.10;;;;;;;;;;4905710;29;20522;-79
2022/01/17 12:54:26;;;;;;;68.05;12.27;;;;;;;;;;4927081;29;20447;-78
2022/01/17 12:56:54;;;;;;;67.25;11.18;;;;;;;;;;4926081;29;20439;-77
2022/01/17 12:59:21;;;;;;;59.88;11.88;;;;;;;;;;4903291;29;21001;-78
2022/01/17 13:01:48;;;;;;;67.90;11.55;;;;;;;;;;4909143;29;20472;-77
2022/01/17 13:04:16;;;;;;;60.60;11.23;;;;;;;;;;4907706;29;20451;-78
2022/01/17 13:06:43;;;;;;;59.55;11.40;;;;;;;;;;4904637;29;20468;-79
2022/01/17 13:09:14;;;;;;;62.70;11.75;;;;;;;;;;4923592;29;20435;-78
2022/01/17 13:11:45;;;;;;;63.40;11.05;;;;;;;;;;4912959;29;20448;-76
2022/01/17 13:14:14;;;;;;;65.93;12.15;;;;;;;;;;4921421;29;20977;-76
2022/01/17 13:16:40;;;;;;;64.95;11.48;;;;;;;;;;4903579;29;20446;-76
2022/01/17 13:19:08;;;;;;;61.87;11.63;;;;;;;;;;4915446;29;20456;-77
2022/01/17 13:21:37;;;;;;;63.37;11.80;;;;;;;;;;4921996;29;20459;-76
2022/01/17 13:24:14;;;;;;;58.08;10.60;;;;;;;;;;4929150;29;20437;-76
2022/01/17 13:26:45;;;;;;;60.88;11.07;;;;;;;;;;4924282;29;20431;-76
2022/01/17 13:29:12;;;;;;;65.00;12.50;;;;;;;;;;4919006;29;20486;-76
2022/01/17 13:31:39;;;;;;;63.85;12.02;;;;;;;;;;4904829;29;20497;-76
2022/01/17 13:34:16;;;;;;;66.38;12.73;;;;;;;;;;4924946;29;20430;-76
2022/01/17 13:36:43;;;;;;;68.55;12.15;;;;;;;;;;4922067;29;20435;-76
2022/01/17 13:39:09;;;;;;;62.10;11.68;;;;;;;;;;4917521;29;20493;-77
2022/01/17 13:41:39;;;;;;;61.28;11.40;;;;;;;;;;4918181;29;20428;-75
2022/01/17 13:44:05;;;;;;;67.88;12.48;;;;;;;;;;4919915;29;20428;-77
2022/01/17 13:46:31;;;;;;;70.13;13.17;;;;;;;;;;4925601;29;20429;-77
2022/01/17 13:48:58;;;;;;;69.38;13.05;;;;;;;;;;4922465;29;20450;-81
2022/01/17 13:51:25;;;;;;;71.18;12.38;;;;;;;;;;4904844;29;20494;-76
2022/01/17 13:53:55;;;;;;;63.83;12.00;;;;;;;;;;4902319;29;20439;-77
2022/01/17 13:56:22;;;;;;;68.10;11.77;;;;;;;;;;4905155;29;20435;-78
2022/01/17 13:58:51;;;;;;;63.15;11.77;;;;;;;;;;4908775;29;20526;-78
2022/01/17 14:01:17;;;;;;;60.63;11.95;;;;;;;;;;4919833;29;20984;-75
2022/01/17 14:03:45;;;;;;;59.88;11.52;;;;;;;;;;4910608;29;20446;-78
2022/01/17 14:06:12;;;;;;;59.47;10.95;;;;;;;;;;4904241;29;20438;-77
2022/01/17 14:08:42;;;;;;;51.15;10.65;;;;;;;;;;4899706;29;20435;-77
2022/01/17 14:11:15;;;;;;;52.92;9.90;;;;;;;;;;4923876;29;20752;-79
2022/01/17 14:13:55;;;;;;;56.03;10.63;;;;;;;;;;4928297;29;20430;-78
2022/01/17 14:16:24;;;;;;;53.83;9.97;;;;;;;;;;4924349;29;20446;-78
2022/01/17 14:18:55;;;;;;;51.75;10.23;;;;;;;;;;4940160;29;20438;-77
2022/01/17 14:21:25;;;;;;;57.10;10.35;;;;;;;;;;4903663;29;21074;-77
2022/01/17 14:24:03;;;;;;;55.40;10.32;;;;;;;;;;4904721;29;20440;-77
2022/01/17 14:26:30;;;;;;;55.95;10.05;;;;;;;;;;4921099;29;20452;-76
2022/01/17 14:28:56;;;;;;;50.10;9.63;;;;;;;;;;4908713;29;20491;-76
2022/01/17 14:31:22;;;;;;;59.97;11.25;;;;;;;;;;4890033;29;20535;-84
2022/01/17 14:33:54;;;;;;;56.47;10.65;;;;;;;;;;4896892;28;20441;-78
2022/01/17 14:36:20;;;;;;;61.55;11.60;;;;;;;;;;4901890;29;20466;-75
2022/01/17 14:38:51;;;;;;;61.03;12.10;;;;;;;;;;4920008;29;20458;-79
2022/01/17 14:41:19;;;;;;;64.40;12.50;;;;;;;;;;4912353;29;20935;-79
2022/01/17 14:43:54;;;;;;;59.53;11.60;;;;;;;;;;4902398;29;20507;-76
2022/01/17 14:46:24;;;;;;;60.30;10.55;;;;;;;;;;4901973;29;20485;-74
2022/01/17 14:48:50;;;;;;;59.27;10.90;;;;;;;;;;4933506;29;20437;-75
2022/01/17 14:51:21;;;;;;;62.58;10.63;;;;;;;;;;4903561;29;20415;-75
2022/01/17 14:53:49;;;;;;;57.73;11.13;;;;;;;;;;4919581;29;20440;-79
2022/01/17 15:01:53;;;;;;;59.60;11.63;;;;;;;;;;4921127;29;20438;-76
2022/01/17 15:04:19;;;;;;;58.67;11.50;;;;;;;;;;4909809;29;20432;-81
2022/01/17 15:06:46;;;;;;;66.47;11.73;;;;;;;;;;4901247;29;20488;-75